createdAt,value
2022-10-23T00:00:20.453Z,0.70
2022-10-23T00:03:22.683Z,0.10
2022-10-23T00:06:25.911Z,0.40
2022-10-23T00:09:28.068Z,0.10
2022-10-23T00:12:30.350Z,0.10
2022-10-23T00:15:35.170Z,0.10
2022-10-23T00:18:38.421Z,0.10
2022-10-23T00:21:41.027Z,0.17
2022-10-23T00:24:43.267Z,0.40
2022-10-23T00:27:45.494Z,0.40
2022-10-23T00:30:47.667Z,0.25
2022-10-23T00:33:51.385Z,0.15
2022-10-23T00:36:53.548Z,0.20
2022-10-23T00:39:55.729Z,0.13
2022-10-23T00:42:57.913Z,0.13
2022-10-23T00:46:00.085Z,0.10
2022-10-23T00:49:03.425Z,0.10
2022-10-23T00:52:09.239Z,0.30
2022-10-23T00:55:11.459Z,0.10
2022-10-23T00:58:14.961Z,0.10
2022-10-23T01:01:19.965Z,0.10
2022-10-23T01:04:23.595Z,0.10
2022-10-23T01:07:50.335Z,0.47
2022-10-23T01:11:07.733Z,0.25
2022-10-23T01:14:16.133Z,0.20
2022-10-23T01:17:27.224Z,0.13
2022-10-23T01:20:43.806Z,0.43
2022-10-23T01:23:51.829Z,0.30
2022-10-23T01:27:19.967Z,0.10
2022-10-23T01:30:22.836Z,0.15
2022-10-23T01:33:31.860Z,0.10
2022-10-23T01:36:37.257Z,0.10
2022-10-23T01:39:46.814Z,0.40
2022-10-23T01:42:55.006Z,0.17
2022-10-23T01:46:05.588Z,0.20
2022-10-23T01:49:13.299Z,0.10
2022-10-23T01:52:18.078Z,0.60
2022-10-23T01:55:23.859Z,0.20
2022-10-23T01:58:28.089Z,0.30
2022-10-23T02:01:33.121Z,0.08
2022-10-23T02:05:03.946Z,0.20
2022-10-23T02:08:07.166Z,0.40
2022-10-23T02:11:12.859Z,0.30
2022-10-23T02:14:28.615Z,0.52
2022-10-23T02:17:51.259Z,0.22
2022-10-23T02:21:02.058Z,0.10
2022-10-23T02:24:11.692Z,0.30
2022-10-23T02:27:34.009Z,0.20
2022-10-23T02:30:41.300Z,0.10
2022-10-23T02:33:47.161Z,0.20
2022-10-23T02:36:49.388Z,0.10
2022-10-23T02:39:55.016Z,0.20
2022-10-23T02:43:10.691Z,0.30
2022-10-23T02:46:27.792Z,0.20
2022-10-23T02:49:57.628Z,0.20
2022-10-23T02:53:05.675Z,0.50
2022-10-23T02:56:17.972Z,0.10
2022-10-23T02:59:27.797Z,0.10
2022-10-23T03:02:44.060Z,0.10
2022-10-23T03:05:48.320Z,0.10
2022-10-23T03:08:54.404Z,0.10
2022-10-23T03:11:56.710Z,0.10
2022-10-23T03:14:59.159Z,0.23
2022-10-23T03:18:01.327Z,0.03
2022-10-23T03:21:04.335Z,0.32
2022-10-23T03:24:09.113Z,0.10
2022-10-23T03:27:16.598Z,0.30
2022-10-23T03:30:19.687Z,0.67
2022-10-23T03:33:25.885Z,0.85
2022-10-23T03:36:28.037Z,0.10
2022-10-23T03:39:30.247Z,0.20
2022-10-23T03:42:32.535Z,0.70
2022-10-23T03:45:34.780Z,0.73
2022-10-23T03:48:38.287Z,0.68
2022-10-23T03:51:41.788Z,1.23
2022-10-23T03:54:43.991Z,1.30
2022-10-23T03:57:46.307Z,1.42
2022-10-23T04:00:48.531Z,0.60
2022-10-23T04:03:50.842Z,0.52
2022-10-23T04:06:53.120Z,0.20
2022-10-23T04:09:56.168Z,0.38
2022-10-23T04:12:59.471Z,0.22
2022-10-23T04:16:02.963Z,0.40
2022-10-23T04:19:05.152Z,0.20
2022-10-23T04:22:07.780Z,0.32
2022-10-23T04:25:16.729Z,0.22
2022-10-23T04:28:23.090Z,0.10
2022-10-23T04:31:25.471Z,0.30
2022-10-23T04:34:27.653Z,0.10
2022-10-23T04:37:29.877Z,0.20
2022-10-23T04:40:32.223Z,0.10
2022-10-23T04:43:34.964Z,0.30
2022-10-23T04:46:38.877Z,0.30
2022-10-23T04:49:41.332Z,0.63
2022-10-23T04:53:02.044Z,0.10
2022-10-23T04:56:14.990Z,0.40
2022-10-23T04:59:26.228Z,0.10
2022-10-23T05:02:28.411Z,0.10
2022-10-23T05:05:30.722Z,0.10
2022-10-23T05:08:41.346Z,0.13
2022-10-23T05:12:16.083Z,0.22
2022-10-23T05:15:18.315Z,0.43
2022-10-23T05:18:24.945Z,0.10
2022-10-23T05:21:31.925Z,0.13
2022-10-23T05:24:34.988Z,0.55
2022-10-23T05:27:41.254Z,0.10
2022-10-23T05:30:46.721Z,0.10
2022-10-23T05:33:49.861Z,0.10
2022-10-23T05:36:55.226Z,0.10
2022-10-23T05:39:59.402Z,0.10
2022-10-23T05:43:01.690Z,0.10
2022-10-23T05:46:24.139Z,0.10
2022-10-23T05:50:01.607Z,0.00
2022-10-23T05:53:22.132Z,0.45
2022-10-23T05:56:43.145Z,0.00
2022-10-23T05:59:54.953Z,0.28
2022-10-23T06:03:23.210Z,0.10
2022-10-23T06:06:25.486Z,0.10
2022-10-23T06:09:27.776Z,0.10
2022-10-23T06:12:33.432Z,0.10
2022-10-23T06:15:35.951Z,0.10
2022-10-23T06:18:44.650Z,0.10
2022-10-23T06:21:49.847Z,0.10
2022-10-23T06:24:52.685Z,0.20
2022-10-23T06:27:59.798Z,0.00
2022-10-23T06:31:06.612Z,0.10
2022-10-23T06:34:11.660Z,0.20
2022-10-23T06:37:14.265Z,0.10
2022-10-23T06:40:21.514Z,0.28
2022-10-23T06:43:33.397Z,0.30
2022-10-23T06:46:55.708Z,0.10
2022-10-23T06:50:21.007Z,0.30
2022-10-23T06:53:24.913Z,0.10
2022-10-23T06:56:35.210Z,0.20
2022-10-23T06:59:40.699Z,0.20
2022-10-23T07:02:44.612Z,0.10
2022-10-23T07:05:49.767Z,0.10
2022-10-23T07:08:52.279Z,0.10
2022-10-23T07:12:12.718Z,0.10
2022-10-23T07:15:21.972Z,0.40
2022-10-23T07:18:24.247Z,0.10
2022-10-23T07:21:46.370Z,0.10
2022-10-23T07:25:11.618Z,0.10
2022-10-23T07:28:15.435Z,0.00
2022-10-23T07:31:17.853Z,0.10
2022-10-23T07:34:38.568Z,0.20
2022-10-23T07:38:03.442Z,0.15
2022-10-23T07:41:11.642Z,0.10
2022-10-23T07:44:15.124Z,0.10
2022-10-23T07:47:17.540Z,0.20
2022-10-23T07:50:23.842Z,0.20
2022-10-23T07:53:26.028Z,0.10
2022-10-23T07:56:31.441Z,0.10
2022-10-23T07:59:52.276Z,0.13
2022-10-23T08:02:56.783Z,0.10
2022-10-23T08:05:59.817Z,0.10
2022-10-23T08:09:06.296Z,0.10
2022-10-23T08:12:10.578Z,0.30
2022-10-23T08:15:12.891Z,0.22
2022-10-23T08:18:26.975Z,0.10
2022-10-23T08:21:32.347Z,0.10
2022-10-23T08:24:34.590Z,0.22
2022-10-23T08:27:36.870Z,0.30
2022-10-23T08:30:39.452Z,0.30
2022-10-23T08:33:42.969Z,0.10
2022-10-23T08:36:45.577Z,0.38
2022-10-23T08:39:51.291Z,0.35
2022-10-23T08:43:10.402Z,0.37
2022-10-23T08:46:19.975Z,0.20
2022-10-23T08:49:56.552Z,0.35
2022-10-23T08:53:41.123Z,0.30
2022-10-23T08:56:48.211Z,0.30
2022-10-23T09:00:04.160Z,0.37
2022-10-23T09:03:06.443Z,0.30
2022-10-23T09:06:25.333Z,0.40
2022-10-23T09:09:48.910Z,0.77
2022-10-23T09:12:51.234Z,0.20
2022-10-23T09:15:59.730Z,0.33
2022-10-23T09:19:02.567Z,0.65
2022-10-23T09:22:05.908Z,0.47
2022-10-23T09:25:16.114Z,0.20
2022-10-23T09:28:27.250Z,0.68
2022-10-23T09:31:29.415Z,0.70
2022-10-23T09:34:34.286Z,0.10
2022-10-23T09:37:46.206Z,0.10
2022-10-23T09:40:50.087Z,0.80
2022-10-23T09:44:07.613Z,0.20
2022-10-23T09:47:12.062Z,0.20
2022-10-23T09:50:20.389Z,0.45
2022-10-23T09:53:50.495Z,0.30
2022-10-23T09:56:54.993Z,0.20
2022-10-23T10:00:01.553Z,0.20
2022-10-23T10:03:23.266Z,0.23
2022-10-23T10:09:43.832Z,0.15
2022-10-23T10:12:59.094Z,0.30
2022-10-23T10:16:14.135Z,0.80
2022-10-23T10:19:25.519Z,0.40
2022-10-23T10:22:49.691Z,0.20
2022-10-23T10:26:00.168Z,0.25
2022-10-23T10:29:08.039Z,0.77
2022-10-23T10:32:38.894Z,0.22
2022-10-23T10:35:43.199Z,0.20
2022-10-23T10:38:50.741Z,0.55
2022-10-23T10:42:25.836Z,0.90
2022-10-23T10:45:33.990Z,0.40
2022-10-23T10:48:57.020Z,0.40
2022-10-23T10:52:31.114Z,0.27
2022-10-23T10:55:40.730Z,0.30
2022-10-23T10:58:48.285Z,0.50
2022-10-23T11:01:59.785Z,0.35
2022-10-23T11:05:46.322Z,0.65
2022-10-23T11:08:57.349Z,0.40
2022-10-23T11:12:00.107Z,0.30
2022-10-23T11:15:02.350Z,0.63
2022-10-23T11:18:13.446Z,0.25
2022-10-23T11:21:30.723Z,0.55
2022-10-23T11:24:52.367Z,0.33
2022-10-23T11:28:11.360Z,0.30
2022-10-23T11:31:35.471Z,0.28
2022-10-23T11:34:52.587Z,0.52
2022-10-23T11:38:20.108Z,0.50
2022-10-23T11:41:27.130Z,0.80
2022-10-23T11:44:36.651Z,0.45
2022-10-23T11:47:40.799Z,0.20
2022-10-23T11:50:46.221Z,0.50
2022-10-23T11:53:48.399Z,0.52
2022-10-23T11:57:10.066Z,1.10
2022-10-23T12:00:23.295Z,0.28
2022-10-23T12:03:35.147Z,0.10
2022-10-23T12:06:52.457Z,0.40
2022-10-23T12:10:00.305Z,0.20
2022-10-23T12:13:05.428Z,0.27
2022-10-23T12:16:07.810Z,0.38
2022-10-23T12:19:21.227Z,0.40
2022-10-23T12:22:28.169Z,0.50
2022-10-23T12:26:15.051Z,0.47
2022-10-23T12:29:23.056Z,0.47
2022-10-23T12:32:46.689Z,0.50
2022-10-23T12:36:33.371Z,0.65
2022-10-23T12:39:38.949Z,0.60
2022-10-23T12:42:41.705Z,0.45
2022-10-23T12:45:44.696Z,0.20
2022-10-23T12:48:55.040Z,0.40
2022-10-23T12:52:16.468Z,0.60
2022-10-23T12:55:18.947Z,0.52
2022-10-23T12:58:32.716Z,0.57
2022-10-23T13:01:40.434Z,0.20
2022-10-23T13:04:45.313Z,0.32
2022-10-23T13:07:48.503Z,0.30
2022-10-23T13:10:54.198Z,0.35
2022-10-23T13:13:57.865Z,0.28
2022-10-23T13:17:06.484Z,0.30
2022-10-23T13:20:17.543Z,0.82
2022-10-23T13:23:32.917Z,0.38
2022-10-23T13:26:45.112Z,0.40
2022-10-23T13:29:47.515Z,0.20
2022-10-23T13:32:49.678Z,0.33
2022-10-23T13:36:00.188Z,0.45
2022-10-23T13:39:12.979Z,0.40
2022-10-23T13:42:16.112Z,0.73
2022-10-23T13:45:26.758Z,0.73
2022-10-23T13:48:29.427Z,0.20
2022-10-23T13:51:40.181Z,0.70
2022-10-23T13:54:44.905Z,0.93
2022-10-23T13:57:47.132Z,0.82
2022-10-23T14:00:51.174Z,0.45
2022-10-23T14:03:54.560Z,0.33
2022-10-23T14:06:58.509Z,0.90
2022-10-23T14:10:00.768Z,0.82
2022-10-23T14:13:02.959Z,0.68
2022-10-23T14:16:05.834Z,0.30
2022-10-23T14:19:08.660Z,0.33
2022-10-23T14:22:10.913Z,0.40
2022-10-23T14:25:13.154Z,0.30
2022-10-23T14:28:16.163Z,0.38
2022-10-23T14:31:18.610Z,0.10
2022-10-23T14:34:21.021Z,0.40
2022-10-23T14:37:23.258Z,0.40
2022-10-23T14:40:25.566Z,0.08
2022-10-23T14:43:27.857Z,0.55
2022-10-23T14:46:30.072Z,0.60
2022-10-23T14:49:33.457Z,0.73
2022-10-23T14:52:35.611Z,0.50
2022-10-23T14:55:37.939Z,1.10
2022-10-23T14:58:40.511Z,1.20
2022-10-23T15:01:45.920Z,0.40
2022-10-23T15:04:50.320Z,0.23
2022-10-23T15:07:52.498Z,0.20
2022-10-23T15:11:04.230Z,0.40
2022-10-23T15:14:14.497Z,0.30
2022-10-23T15:17:16.655Z,0.50
2022-10-23T15:20:18.821Z,0.83
2022-10-23T15:23:20.983Z,0.85
2022-10-23T15:26:25.401Z,0.35
2022-10-23T15:29:27.608Z,0.47
2022-10-23T15:32:29.791Z,0.22
2022-10-23T15:35:32.126Z,0.80
2022-10-23T15:38:34.273Z,0.90
2022-10-23T15:41:38.546Z,0.77
2022-10-23T15:44:41.312Z,1.02
2022-10-23T15:47:43.770Z,0.65
2022-10-23T15:50:45.998Z,0.80
2022-10-23T15:53:48.395Z,0.82
2022-10-23T15:56:53.490Z,0.73
2022-10-23T15:59:55.692Z,0.30
2022-10-23T16:02:58.086Z,0.35
2022-10-23T16:06:07.629Z,0.80
2022-10-23T16:09:09.842Z,0.63
2022-10-23T16:12:12.031Z,1.13
2022-10-23T16:15:15.487Z,0.60
2022-10-23T16:18:18.786Z,0.55
2022-10-23T16:21:23.621Z,1.40
2022-10-23T16:24:25.855Z,0.60
2022-10-23T16:27:28.033Z,0.28
2022-10-23T16:30:30.432Z,0.90
2022-10-23T16:33:32.598Z,0.73
2022-10-23T16:36:38.970Z,0.47
2022-10-23T16:40:08.913Z,0.60
2022-10-23T16:43:30.055Z,1.08
2022-10-23T16:46:40.274Z,0.77
2022-10-23T16:49:42.633Z,1.13
2022-10-23T16:52:45.196Z,1.00
2022-10-23T16:55:47.666Z,1.02
2022-10-23T16:58:50.341Z,1.00
2022-10-23T17:01:53.268Z,0.75
2022-10-23T17:04:55.529Z,0.60
2022-10-23T17:07:57.690Z,0.73
2022-10-23T17:11:10.830Z,0.90
2022-10-23T17:14:18.323Z,1.48
2022-10-23T17:17:20.668Z,1.20
2022-10-23T17:20:22.943Z,1.83
2022-10-23T17:23:26.327Z,1.17
2022-10-23T17:26:28.747Z,1.63
2022-10-23T17:29:30.931Z,1.80
2022-10-23T17:32:35.932Z,1.13
2022-10-23T17:35:39.480Z,1.00
2022-10-23T17:38:43.495Z,1.30
2022-10-23T17:41:46.292Z,1.33
2022-10-23T17:44:48.453Z,1.67
2022-10-23T17:47:50.622Z,0.43
2022-10-23T17:51:08.484Z,2.63
2022-10-23T17:54:12.200Z,1.10
2022-10-23T17:57:14.391Z,1.38
2022-10-23T18:00:16.924Z,1.10
2022-10-23T18:03:19.920Z,0.90
2022-10-23T18:06:28.889Z,1.52
2022-10-23T18:09:32.032Z,1.33
2022-10-23T18:12:34.241Z,1.48
2022-10-23T18:15:36.634Z,1.40
2022-10-23T18:18:40.610Z,0.60
2022-10-23T18:21:42.850Z,0.98
2022-10-23T18:24:45.007Z,1.53
2022-10-23T18:27:47.159Z,1.13
2022-10-23T18:30:52.122Z,1.17
2022-10-23T18:33:59.025Z,0.80
2022-10-23T18:37:01.327Z,0.82
2022-10-23T18:40:04.184Z,0.40
2022-10-23T18:43:11.661Z,1.23
2022-10-23T18:46:18.070Z,0.82
2022-10-23T18:49:20.499Z,0.88
2022-10-23T18:52:22.665Z,1.55
2022-10-23T18:55:24.864Z,1.27
2022-10-23T18:58:27.058Z,0.98
2022-10-23T19:01:30.650Z,1.55
2022-10-23T19:04:35.613Z,1.13
2022-10-23T19:07:43.739Z,0.65
2022-10-23T19:10:47.115Z,1.00
2022-10-23T19:13:49.648Z,0.90
2022-10-23T19:16:54.455Z,1.00
2022-10-23T19:20:12.524Z,1.08
2022-10-23T19:23:15.963Z,1.88
2022-10-23T19:26:18.326Z,0.73
2022-10-23T19:29:23.216Z,0.40
2022-10-23T19:32:25.373Z,0.77
2022-10-23T19:35:27.791Z,1.25
2022-10-23T19:38:30.048Z,0.88
2022-10-23T19:41:39.144Z,0.50
2022-10-23T19:44:41.359Z,0.30
2022-10-23T19:47:50.160Z,1.52
2022-10-23T19:50:52.335Z,1.20
2022-10-23T19:53:54.918Z,0.93
2022-10-23T19:56:57.222Z,0.67
2022-10-23T20:00:00.154Z,1.10
2022-10-23T20:03:02.473Z,0.40
2022-10-23T20:06:07.457Z,0.68
2022-10-23T20:09:09.907Z,1.50
2022-10-23T20:12:12.083Z,1.70
2022-10-23T20:15:17.505Z,1.55
2022-10-23T20:18:19.670Z,2.03
2022-10-23T20:21:22.582Z,0.65
2022-10-23T20:24:24.804Z,0.55
2022-10-23T20:27:27.763Z,1.17
2022-10-23T20:30:30.057Z,0.73
2022-10-23T20:33:32.261Z,0.52
2022-10-23T20:36:45.418Z,2.10
2022-10-23T20:39:49.108Z,1.00
2022-10-23T20:42:51.237Z,1.13
2022-10-23T20:45:53.397Z,1.83
2022-10-23T20:48:55.551Z,1.08
2022-10-23T20:51:57.784Z,1.08
2022-10-23T20:54:59.993Z,1.38
2022-10-23T20:58:09.026Z,0.93
2022-10-23T21:01:14.636Z,0.90
2022-10-23T21:04:19.861Z,1.00
2022-10-23T21:07:22.027Z,1.02
2022-10-23T21:10:24.218Z,1.23
2022-10-23T21:13:26.922Z,0.87
2022-10-23T21:16:33.144Z,0.82
2022-10-23T21:19:35.368Z,1.15
2022-10-23T21:22:37.531Z,2.47
2022-10-23T21:25:40.901Z,1.05
2022-10-23T21:28:55.621Z,1.83
2022-10-23T21:32:03.253Z,0.50
2022-10-23T21:35:06.066Z,1.15
2022-10-23T21:38:08.479Z,1.10
2022-10-23T21:41:17.424Z,1.20
2022-10-23T21:44:19.649Z,0.67
2022-10-23T21:47:21.939Z,1.30
2022-10-23T21:50:24.104Z,2.20
2022-10-23T21:53:26.743Z,0.90
2022-10-23T21:56:41.677Z,1.48
2022-10-23T21:59:43.902Z,0.63
2022-10-23T22:02:46.497Z,1.92
2022-10-23T22:05:49.003Z,0.82
2022-10-23T22:08:52.073Z,1.92
2022-10-23T22:11:55.248Z,0.73
2022-10-23T22:14:57.719Z,2.07
2022-10-23T22:18:00.480Z,1.38
2022-10-23T22:21:05.165Z,0.88
2022-10-23T22:24:08.352Z,1.60
2022-10-23T22:27:10.503Z,1.48
2022-10-23T22:30:12.936Z,0.43
2022-10-23T22:33:15.107Z,1.42
2022-10-23T22:36:18.080Z,1.48
2022-10-23T22:39:20.622Z,2.00
2022-10-23T22:42:22.789Z,0.80
2022-10-23T22:45:24.931Z,0.60
2022-10-23T22:48:27.653Z,1.13
2022-10-23T22:51:30.289Z,0.80
2022-10-23T22:54:32.530Z,1.00
2022-10-23T22:57:34.698Z,0.50
2022-10-23T23:00:42.841Z,1.53
2022-10-23T23:03:46.698Z,1.48
2022-10-23T23:06:48.960Z,1.15
2022-10-23T23:09:51.111Z,1.38
2022-10-23T23:12:53.282Z,0.70
2022-10-23T23:15:56.140Z,1.17
2022-10-23T23:19:00.715Z,0.85
2022-10-23T23:22:03.485Z,0.30
2022-10-23T23:25:06.101Z,1.38
2022-10-23T23:28:08.423Z,1.83
2022-10-23T23:31:28.431Z,0.63
2022-10-23T23:34:30.653Z,1.60
2022-10-23T23:37:32.811Z,0.55
2022-10-23T23:40:35.199Z,1.27
2022-10-23T23:43:37.378Z,1.25
2022-10-23T23:46:39.527Z,0.70
2022-10-23T23:49:41.705Z,0.75
2022-10-23T23:52:44.281Z,1.45
2022-10-23T23:55:46.549Z,1.45
2022-10-23T23:58:48.762Z,0.75
